首页
METAR-TAF:

METAR-TAF

机场 :

Stanton, 明尼蘇達州, 美国

纬度: 44-28-32N, 经度: 093-00-59W, 海拔: 280米

当前天气观测

该预报发布于7分钟前的07:15 UTC
风速12节,风向西转西北
温度 -19°C
湿度 77%
气压 1023 hPa
能見度: 16.1公里
阴天层高于4300英尺

METAR: KSYN 190715Z AUTO 29012KT 10SM OVC043 M19/M22 A3020 RMK AO2 T11861221

时间: 01:22 (07:22 UTC)


TAF: 丢失

超过4000个机场的气象观测和天气预报(METAR&TAF报告)。

可查询的气象台以黄色和红色小点在地图上表示。

将鼠标移到小点上方,可查看气象台名称。

然后点击查看天气观测和预报。

如需切换地图:点击带黑十字的绿色按钮放大地图;点击带横线的绿色按钮缩小地图;或者点击绿色箭头查看邻近地区的地图。


METAR-TAF: